createdAt,value
2019-02-26T00:00:44.922Z,100504.83
2019-02-26T00:03:11.429Z,100499.33
2019-02-26T00:05:40.459Z,100496.27
2019-02-26T00:08:09.547Z,100488.88
2019-02-26T00:10:39.080Z,100498.20
2019-02-26T00:13:08.155Z,100497.71
2019-02-26T00:15:38.517Z,100499.59
2019-02-26T00:18:11.482Z,100493.70
2019-02-26T00:20:39.664Z,100490.12
2019-02-26T00:23:09.394Z,100484.82
2019-02-26T00:25:38.091Z,100492.05
2019-02-26T00:28:06.761Z,100493.86
2019-02-26T00:30:37.460Z,100497.87
2019-02-26T00:33:05.859Z,100495.80
2019-02-26T00:35:34.788Z,100499.93
2019-02-26T00:38:03.442Z,100497.66
2019-02-26T00:40:34.341Z,100495.59
2019-02-26T00:43:04.781Z,100500.84
2019-02-26T00:45:34.046Z,100496.29
2019-02-26T00:48:03.898Z,100492.92
2019-02-26T00:50:34.942Z,100486.41
2019-02-26T00:53:03.985Z,100492.56
2019-02-26T00:55:34.724Z,100491.41
2019-02-26T00:58:05.734Z,100487.47
2019-02-26T01:00:35.478Z,100481.30
2019-02-26T01:03:05.905Z,100481.34
2019-02-26T01:05:36.250Z,100478.27
2019-02-26T01:08:07.471Z,100473.70
2019-02-26T01:10:39.106Z,100472.05
2019-02-26T01:13:07.421Z,100478.40
2019-02-26T01:15:36.191Z,100474.51
2019-02-26T01:18:05.642Z,100478.59
2019-02-26T01:20:34.494Z,100476.84
2019-02-26T01:23:03.503Z,100481.88
2019-02-26T01:25:32.503Z,100485.00
2019-02-26T01:28:01.429Z,100473.93
2019-02-26T01:30:31.913Z,100466.13
2019-02-26T01:33:03.235Z,100461.16
2019-02-26T01:35:32.929Z,100453.63
2019-02-26T01:38:01.555Z,100453.48
2019-02-26T01:40:30.746Z,100451.34
2019-02-26T01:43:02.601Z,100454.11
2019-02-26T01:45:32.316Z,100450.17
2019-02-26T01:48:00.611Z,100455.05
2019-02-26T01:50:30.942Z,100441.48
2019-02-26T01:53:01.073Z,100427.62
2019-02-26T01:55:29.824Z,100434.83
2019-02-26T01:57:59.274Z,100427.55
2019-02-26T02:00:28.171Z,100435.06
2019-02-26T02:02:57.224Z,100435.11
2019-02-26T02:05:28.589Z,100424.58
2019-02-26T02:07:56.595Z,100418.02
2019-02-26T02:10:25.267Z,100411.65
2019-02-26T02:12:57.363Z,100419.81
2019-02-26T02:15:24.593Z,100412.94
2019-02-26T02:17:56.639Z,100414.05
2019-02-26T02:20:24.025Z,100417.60
2019-02-26T02:22:52.705Z,100418.17
2019-02-26T02:25:22.099Z,100412.80
2019-02-26T02:27:54.169Z,100410.77
2019-02-26T02:30:26.546Z,100405.34
2019-02-26T02:32:55.056Z,100402.85
2019-02-26T02:35:22.364Z,100404.92
2019-02-26T02:37:53.720Z,100403.97
2019-02-26T02:40:21.465Z,100406.78
2019-02-26T02:42:50.473Z,100405.73
2019-02-26T02:45:21.013Z,100409.39
2019-02-26T02:47:54.665Z,100396.18
2019-02-26T02:50:20.493Z,100395.98
2019-02-26T02:52:50.790Z,100401.10
2019-02-26T02:55:19.788Z,100397.06
2019-02-26T02:57:52.378Z,100400.30
2019-02-26T03:00:22.726Z,100399.80
2019-02-26T03:02:52.856Z,100399.80
2019-02-26T03:05:20.362Z,100402.33
2019-02-26T03:07:51.646Z,100389.19
2019-02-26T03:10:19.725Z,100391.21
2019-02-26T03:12:53.831Z,100395.39
2019-02-26T03:15:21.207Z,100393.49
2019-02-26T03:17:49.597Z,100397.88
2019-02-26T03:20:18.422Z,100394.44
2019-02-26T03:22:49.213Z,100387.89
2019-02-26T03:25:20.935Z,100397.41
2019-02-26T03:27:48.674Z,100402.91
2019-02-26T03:30:26.295Z,100409.41
2019-02-26T03:32:55.811Z,100409.53
2019-02-26T03:35:23.068Z,100406.98
2019-02-26T03:37:52.380Z,100413.04
2019-02-26T03:40:24.187Z,100411.77
2019-02-26T03:42:51.508Z,100405.07
2019-02-26T03:45:23.853Z,100400.28
2019-02-26T03:47:50.887Z,100401.65
2019-02-26T03:50:19.703Z,100408.47
2019-02-26T03:52:48.721Z,100403.38
2019-02-26T03:55:18.727Z,100400.25
2019-02-26T03:57:53.286Z,100400.16
2019-02-26T04:00:20.348Z,100403.92
2019-02-26T04:02:51.824Z,100404.91
2019-02-26T04:05:20.471Z,100407.11
2019-02-26T04:07:52.294Z,100403.20
2019-02-26T04:10:19.602Z,100396.29
2019-02-26T04:12:51.831Z,100402.56
2019-02-26T04:15:18.851Z,100405.11
2019-02-26T04:17:47.637Z,100405.42
2019-02-26T04:20:17.033Z,100411.36
2019-02-26T04:22:48.316Z,100409.14
2019-02-26T04:25:38.047Z,100414.69
2019-02-26T04:28:37.058Z,100406.84
2019-02-26T04:31:47.110Z,100411.85
2019-02-26T04:34:40.114Z,100408.55
2019-02-26T04:37:30.713Z,100409.55
2019-02-26T04:40:40.996Z,100404.47
2019-02-26T04:43:34.121Z,100409.02
2019-02-26T04:46:31.587Z,100411.38
2019-02-26T04:48:59.595Z,100410.08
2019-02-26T04:51:28.276Z,100405.81
2019-02-26T04:53:59.536Z,100408.58
2019-02-26T04:56:31.314Z,100404.70
2019-02-26T04:58:58.814Z,100410.91
2019-02-26T05:01:27.745Z,100408.52
2019-02-26T05:03:56.433Z,100406.17
2019-02-26T05:06:25.329Z,100407.97
2019-02-26T05:08:56.866Z,100404.40
2019-02-26T05:11:31.354Z,100397.97
2019-02-26T05:13:55.763Z,100395.53
2019-02-26T05:16:26.678Z,100402.20
2019-02-26T05:18:57.910Z,100396.95
2019-02-26T05:21:27.065Z,100302.97
2019-02-26T05:23:57.650Z,100396.23
2019-02-26T05:26:26.251Z,100394.19
2019-02-26T05:28:55.239Z,100387.84
2019-02-26T05:31:24.091Z,100382.87
2019-02-26T05:33:55.321Z,100381.97
2019-02-26T05:36:23.166Z,100389.67
2019-02-26T05:38:54.671Z,100388.50
2019-02-26T05:41:22.751Z,100389.40
2019-02-26T05:43:55.312Z,100388.05
2019-02-26T05:46:24.560Z,100394.38
2019-02-26T05:48:52.336Z,100393.23
2019-02-26T05:51:21.630Z,100391.80
2019-02-26T05:53:50.506Z,100385.71
2019-02-26T05:56:20.745Z,100385.02
2019-02-26T05:58:49.591Z,100380.55
2019-02-26T06:01:19.339Z,100388.77
2019-02-26T06:03:49.701Z,100379.61
2019-02-26T06:06:19.290Z,100373.83
2019-02-26T06:08:47.973Z,100373.30
2019-02-26T06:11:17.153Z,100381.41
2019-02-26T06:13:46.154Z,100383.09
2019-02-26T06:16:15.155Z,100379.90
2019-02-26T06:18:46.524Z,100394.78
2019-02-26T06:21:16.530Z,100398.52
2019-02-26T06:23:54.138Z,100389.02
2019-02-26T06:26:22.878Z,100395.93
2019-02-26T06:28:53.033Z,100392.16
2019-02-26T06:31:24.974Z,100399.81
2019-02-26T06:33:53.763Z,100404.79
2019-02-26T06:36:23.478Z,100400.07
2019-02-26T06:38:54.078Z,100398.12
2019-02-26T06:41:23.822Z,100396.91
2019-02-26T06:43:55.077Z,100405.06
2019-02-26T06:46:26.236Z,100414.03
2019-02-26T06:48:54.555Z,100417.07
2019-02-26T06:51:24.326Z,100417.77
2019-02-26T06:53:54.796Z,100419.73
2019-02-26T06:56:24.186Z,100414.17
2019-02-26T06:58:53.346Z,100423.39
2019-02-26T07:01:22.247Z,100423.66
2019-02-26T07:03:51.170Z,100421.53
2019-02-26T07:06:22.782Z,100414.42
2019-02-26T07:08:51.175Z,100411.66
2019-02-26T07:11:21.147Z,100407.30
2019-02-26T07:13:49.907Z,100408.48
2019-02-26T07:16:20.616Z,100408.86
2019-02-26T07:18:49.446Z,100412.66
2019-02-26T07:21:18.232Z,100423.16
2019-02-26T07:23:47.021Z,100416.52
2019-02-26T07:26:16.628Z,100413.80
2019-02-26T07:28:48.694Z,100409.00
2019-02-26T07:31:17.789Z,100412.08
2019-02-26T07:33:46.471Z,100419.36
2019-02-26T07:36:16.156Z,100417.64
2019-02-26T07:38:48.545Z,100413.87
2019-02-26T07:41:18.848Z,100406.72
2019-02-26T07:43:49.304Z,100408.78
2019-02-26T07:46:19.287Z,100415.52
2019-02-26T07:48:48.836Z,100408.33
2019-02-26T07:51:19.109Z,100415.38
2019-02-26T07:53:49.310Z,100422.70
2019-02-26T07:56:18.278Z,100422.91
2019-02-26T07:58:47.510Z,100423.80
2019-02-26T08:01:16.455Z,100421.38
2019-02-26T08:03:46.999Z,100417.55
2019-02-26T08:06:15.883Z,100417.75
2019-02-26T08:08:46.623Z,100419.93
2019-02-26T08:11:15.022Z,100416.39
2019-02-26T08:13:43.672Z,100417.77
2019-02-26T08:16:12.327Z,100418.62
2019-02-26T08:18:41.421Z,100419.72
2019-02-26T08:21:10.397Z,100429.46
2019-02-26T08:23:41.233Z,100421.22
2019-02-26T08:26:10.034Z,100431.06
2019-02-26T08:28:41.406Z,100421.96
2019-02-26T08:31:13.334Z,100422.90
2019-02-26T08:33:40.077Z,100414.55
2019-02-26T08:36:08.729Z,100415.78
2019-02-26T08:38:38.060Z,100420.80
2019-02-26T08:41:06.744Z,100419.70
2019-02-26T08:43:35.415Z,100424.25
2019-02-26T08:46:04.169Z,100415.41
2019-02-26T08:48:32.854Z,100421.26
2019-02-26T08:51:05.428Z,100417.84
2019-02-26T08:53:32.199Z,100414.95
2019-02-26T08:56:03.779Z,100406.58
2019-02-26T08:58:31.597Z,100408.62
2019-02-26T09:01:00.261Z,100410.42
2019-02-26T09:03:28.943Z,100406.27
2019-02-26T09:06:10.189Z,100406.59
2019-02-26T09:08:30.179Z,100405.33
2019-02-26T09:11:00.724Z,100401.89
2019-02-26T09:13:30.789Z,100401.20
2019-02-26T09:16:01.068Z,100401.05
2019-02-26T09:18:31.499Z,100398.08
2019-02-26T09:21:01.076Z,100394.28
2019-02-26T09:23:30.548Z,100399.50
2019-02-26T09:26:02.582Z,100391.05
2019-02-26T09:28:32.125Z,100398.75
2019-02-26T09:31:01.843Z,100395.73
2019-02-26T09:33:33.031Z,100385.08
2019-02-26T09:36:01.672Z,100387.53
2019-02-26T09:38:31.769Z,100389.48
2019-02-26T09:41:00.720Z,100389.20
2019-02-26T09:43:29.403Z,100394.43
2019-02-26T09:45:58.071Z,100394.13
2019-02-26T09:48:26.757Z,100394.13
2019-02-26T09:50:55.461Z,100393.30
2019-02-26T09:53:24.459Z,100398.52
2019-02-26T09:55:53.132Z,100404.28
2019-02-26T09:58:23.389Z,100409.47
2019-02-26T10:00:54.019Z,100403.72
2019-02-26T10:03:23.189Z,100413.59
2019-02-26T10:05:53.254Z,100411.37
2019-02-26T10:08:24.803Z,100415.77
2019-02-26T10:10:55.006Z,100415.48
2019-02-26T10:13:25.198Z,100409.91
2019-02-26T10:15:56.292Z,100414.84
2019-02-26T10:18:25.686Z,100414.84
2019-02-26T10:20:55.659Z,100408.80
2019-02-26T10:23:26.262Z,100407.42
2019-02-26T10:25:57.505Z,100408.98
2019-02-26T10:28:25.115Z,100410.05
2019-02-26T10:30:55.025Z,100410.64
2019-02-26T10:33:24.602Z,100410.61
2019-02-26T10:35:53.289Z,100408.62
2019-02-26T10:38:24.079Z,100408.62
2019-02-26T10:40:56.205Z,100403.86
2019-02-26T10:43:23.037Z,100400.04
2019-02-26T10:45:54.786Z,100402.78
2019-02-26T10:48:25.125Z,100402.72
2019-02-26T10:50:53.730Z,100401.06
2019-02-26T10:53:22.776Z,100398.81
2019-02-26T10:55:51.856Z,100400.73
2019-02-26T10:58:20.515Z,100403.25
2019-02-26T11:00:55.296Z,100396.09
2019-02-26T11:03:24.317Z,100394.36
2019-02-26T11:05:53.277Z,100404.48
2019-02-26T11:08:26.179Z,100405.20
2019-02-26T11:10:52.602Z,100412.08
2019-02-26T11:13:24.917Z,100402.92
2019-02-26T11:15:53.969Z,100407.23
2019-02-26T11:18:23.396Z,100410.80
2019-02-26T11:20:55.279Z,100408.59
2019-02-26T11:23:30.416Z,100407.78
2019-02-26T11:25:53.570Z,100415.73
2019-02-26T11:28:22.252Z,100413.25
2019-02-26T11:30:54.017Z,100398.78
2019-02-26T11:33:21.678Z,100395.59
2019-02-26T11:35:51.474Z,100399.97
2019-02-26T11:38:22.154Z,100398.43
2019-02-26T11:40:50.879Z,100397.17
2019-02-26T11:43:22.928Z,100393.99
2019-02-26T11:45:49.997Z,100389.13
2019-02-26T11:48:20.674Z,100389.17
2019-02-26T11:50:49.334Z,100384.74
2019-02-26T11:53:18.001Z,100384.69
2019-02-26T11:55:49.354Z,100375.19
2019-02-26T11:58:19.882Z,100370.91
2019-02-26T12:00:57.363Z,100380.97
2019-02-26T12:03:29.753Z,100375.36
2019-02-26T12:06:00.567Z,100379.73
2019-02-26T12:08:27.872Z,100370.88
2019-02-26T12:11:01.040Z,100374.17
2019-02-26T12:13:27.780Z,100372.45
2019-02-26T12:15:56.822Z,100373.19
2019-02-26T12:18:25.805Z,100372.67
2019-02-26T12:20:54.801Z,100371.69
2019-02-26T12:23:23.906Z,100367.99
2019-02-26T12:25:55.349Z,100365.47
2019-02-26T12:28:25.184Z,100370.41
2019-02-26T12:30:53.457Z,100366.07
2019-02-26T12:33:23.335Z,100369.30
2019-02-26T12:35:52.275Z,100364.92
2019-02-26T12:38:21.480Z,100365.90
2019-02-26T12:40:53.409Z,100365.16
2019-02-26T12:43:21.171Z,100361.38
2019-02-26T12:45:51.446Z,100367.68
2019-02-26T12:48:22.764Z,100359.67
2019-02-26T12:50:52.142Z,100353.92
2019-02-26T12:53:23.553Z,100354.19
2019-02-26T12:55:51.503Z,100353.27
2019-02-26T12:58:21.396Z,100354.73
2019-02-26T13:00:50.825Z,100345.92
2019-02-26T13:03:22.632Z,100339.11
2019-02-26T13:05:51.740Z,100341.63
2019-02-26T13:08:24.120Z,100336.38
2019-02-26T13:10:57.746Z,100339.02
2019-02-26T13:13:22.433Z,100333.91
2019-02-26T13:15:51.359Z,100322.45
2019-02-26T13:18:20.055Z,100315.69
2019-02-26T13:20:52.349Z,100319.36
2019-02-26T13:23:20.587Z,100322.84
2019-02-26T13:25:51.141Z,100314.17
2019-02-26T13:28:19.846Z,100309.43
2019-02-26T13:30:48.544Z,100305.39
2019-02-26T13:33:18.875Z,100311.69
2019-02-26T13:35:52.232Z,100306.14
2019-02-26T13:38:24.527Z,100302.70
2019-02-26T13:40:49.094Z,100298.23
2019-02-26T13:43:18.127Z,100301.81
2019-02-26T13:45:47.398Z,100301.19
2019-02-26T13:48:16.959Z,100293.33
2019-02-26T13:50:45.701Z,100294.13
2019-02-26T13:53:14.402Z,100293.45
2019-02-26T13:55:43.055Z,100289.09
2019-02-26T13:58:12.286Z,100290.98
2019-02-26T14:00:41.447Z,100291.58
2019-02-26T14:03:10.130Z,100297.57
2019-02-26T14:05:38.798Z,100286.83
2019-02-26T14:08:08.063Z,100286.83
2019-02-26T14:10:37.244Z,100280.06
2019-02-26T14:13:06.480Z,100279.49
2019-02-26T14:15:35.520Z,100284.59
2019-02-26T14:18:04.344Z,100280.77
2019-02-26T14:20:33.313Z,100273.84
2019-02-26T14:23:01.998Z,100271.70
2019-02-26T14:25:30.663Z,100257.24
2019-02-26T14:27:59.767Z,100255.37
2019-02-26T14:30:28.860Z,100259.98
2019-02-26T14:32:57.848Z,100256.11
2019-02-26T14:35:26.593Z,100254.83
2019-02-26T14:37:55.858Z,100253.52
2019-02-26T14:40:24.509Z,100249.70
2019-02-26T14:42:53.187Z,100244.39
2019-02-26T14:45:21.948Z,100249.93
2019-02-26T14:47:51.019Z,100249.56
2019-02-26T14:50:19.907Z,100256.30
2019-02-26T14:52:48.649Z,100248.24
2019-02-26T14:55:17.458Z,100239.25
2019-02-26T14:57:46.813Z,100118.87
2019-02-26T15:00:22.521Z,100240.20
2019-02-26T15:02:51.577Z,100235.97
2019-02-26T15:05:20.394Z,100228.91
2019-02-26T15:07:49.383Z,100224.73
2019-02-26T15:10:18.142Z,100229.75
2019-02-26T15:12:47.120Z,100225.62
2019-02-26T15:15:16.233Z,100212.77
2019-02-26T15:17:45.256Z,100213.66
2019-02-26T15:20:15.556Z,100216.51
2019-02-26T15:22:44.219Z,100219.27
2019-02-26T15:25:15.860Z,100211.52
2019-02-26T15:27:44.530Z,100206.45
2019-02-26T15:30:14.638Z,100205.34
2019-02-26T15:32:43.793Z,100209.71
2019-02-26T15:35:13.055Z,100201.30
2019-02-26T15:37:41.902Z,100203.91
2019-02-26T15:40:11.440Z,100209.67
2019-02-26T15:42:41.640Z,100206.84
2019-02-26T15:45:16.087Z,100202.53
2019-02-26T15:47:47.092Z,100208.83
2019-02-26T15:50:15.979Z,100204.47
2019-02-26T15:52:44.749Z,100204.41
2019-02-26T15:55:18.384Z,100205.24
2019-02-26T15:57:47.040Z,100206.78
2019-02-26T16:00:18.469Z,100206.52
2019-02-26T16:02:47.965Z,100207.02
2019-02-26T16:05:19.007Z,100208.00
2019-02-26T16:07:47.659Z,100206.27
2019-02-26T16:10:19.488Z,100200.09
2019-02-26T16:12:49.124Z,100200.19
2019-02-26T16:15:18.226Z,100203.27
2019-02-26T16:17:47.128Z,100203.09
2019-02-26T16:20:17.450Z,100199.01
2019-02-26T16:22:46.843Z,100202.77
2019-02-26T16:25:15.604Z,100193.92
2019-02-26T16:27:44.253Z,100185.89
2019-02-26T16:30:16.085Z,100185.83
2019-02-26T16:32:44.040Z,100192.81
2019-02-26T16:35:15.030Z,100190.90
2019-02-26T16:37:43.716Z,100192.27
2019-02-26T16:40:12.973Z,100194.45
2019-02-26T16:42:44.361Z,100195.03
2019-02-26T16:45:14.829Z,100197.60
2019-02-26T16:47:45.979Z,100192.76
2019-02-26T16:50:15.581Z,100201.56
2019-02-26T16:52:44.317Z,100202.45
2019-02-26T16:55:14.140Z,100203.59
2019-02-26T16:57:43.836Z,100210.13
2019-02-26T17:00:15.651Z,100207.76
2019-02-26T17:02:44.981Z,100203.08
2019-02-26T17:05:14.973Z,100209.91
2019-02-26T17:07:43.852Z,100220.47
2019-02-26T17:10:14.915Z,100215.17
2019-02-26T17:12:45.228Z,100219.36
2019-02-26T17:15:17.915Z,100224.47
2019-02-26T17:17:46.893Z,100221.52
2019-02-26T17:20:15.648Z,100214.70
2019-02-26T17:22:45.010Z,100221.05
2019-02-26T17:25:13.844Z,100217.11
2019-02-26T17:27:42.782Z,100219.11
2019-02-26T17:30:12.167Z,100220.88
2019-02-26T17:32:40.846Z,100222.56
2019-02-26T17:35:09.755Z,100224.94
2019-02-26T17:37:41.450Z,100222.23
2019-02-26T17:40:10.284Z,100221.20
2019-02-26T17:42:38.938Z,100230.19
2019-02-26T17:45:09.903Z,100228.62
2019-02-26T17:47:38.805Z,100230.06
2019-02-26T17:50:12.025Z,100226.27
2019-02-26T17:52:41.054Z,100230.66
2019-02-26T17:55:10.147Z,100224.62
2019-02-26T17:57:39.193Z,100229.23
2019-02-26T18:00:10.652Z,100224.80
2019-02-26T18:02:39.337Z,100234.08
2019-02-26T18:05:10.656Z,100225.61
2019-02-26T18:07:39.102Z,100227.50
2019-02-26T18:10:13.025Z,100231.58
2019-02-26T18:12:42.632Z,100223.36
2019-02-26T18:15:16.725Z,100225.06
2019-02-26T18:17:43.593Z,100220.95
2019-02-26T18:20:14.454Z,100224.06
2019-02-26T18:22:43.218Z,100229.88
2019-02-26T18:25:12.939Z,100217.31
2019-02-26T18:27:41.848Z,100217.03
2019-02-26T18:30:15.146Z,100212.09
2019-02-26T18:32:49.927Z,100223.34
2019-02-26T18:35:14.285Z,100213.75
2019-02-26T18:37:46.397Z,100213.75
2019-02-26T18:40:14.464Z,100210.44
2019-02-26T18:42:43.178Z,100210.72
2019-02-26T18:45:19.999Z,100206.80
2019-02-26T18:47:48.691Z,100206.80
2019-02-26T18:50:17.610Z,100203.53
2019-02-26T18:52:46.366Z,100211.20
2019-02-26T18:55:16.014Z,100209.80
2019-02-26T18:57:45.011Z,100207.90
2019-02-26T19:00:17.198Z,100208.20
2019-02-26T19:02:45.972Z,100214.22
2019-02-26T19:05:14.751Z,100215.59
2019-02-26T19:07:43.400Z,100215.59
2019-02-26T19:10:17.514Z,100203.00
2019-02-26T19:12:43.844Z,100203.00
2019-02-26T19:15:14.811Z,100201.37
2019-02-26T19:17:45.981Z,100201.37
2019-02-26T19:20:15.592Z,100207.13
2019-02-26T19:22:44.825Z,100209.08
2019-02-26T19:25:13.661Z,100203.58
2019-02-26T19:27:42.344Z,100209.89
2019-02-26T19:30:13.589Z,100209.89
2019-02-26T19:32:42.591Z,100206.61
2019-02-26T19:35:12.496Z,100206.61
2019-02-26T19:37:41.496Z,100208.80
2019-02-26T19:40:12.266Z,100206.79
2019-02-26T19:42:42.594Z,100210.30
2019-02-26T19:45:12.004Z,100209.78
2019-02-26T19:47:41.081Z,100214.13
2019-02-26T19:50:11.842Z,100214.11
2019-02-26T19:52:41.122Z,100213.86
2019-02-26T19:55:15.656Z,100212.70
2019-02-26T19:57:43.947Z,100211.83
2019-02-26T20:00:12.972Z,100215.89
2019-02-26T20:02:43.200Z,100206.56
2019-02-26T20:05:12.302Z,100209.00
2019-02-26T20:07:41.691Z,100215.81
2019-02-26T20:10:14.746Z,100217.95
2019-02-26T20:12:41.824Z,100212.98
2019-02-26T20:15:13.191Z,100212.12
2019-02-26T20:17:42.432Z,100205.52
2019-02-26T20:20:12.182Z,100213.10
2019-02-26T20:22:41.127Z,100212.00
2019-02-26T20:25:12.527Z,100213.64
2019-02-26T20:27:41.387Z,100223.02
2019-02-26T20:30:12.373Z,100219.67
2019-02-26T20:32:41.858Z,100220.14
2019-02-26T20:35:11.944Z,100219.11
2019-02-26T20:37:41.588Z,100217.69
2019-02-26T20:40:16.125Z,100216.98
2019-02-26T20:42:43.169Z,100210.56
2019-02-26T20:45:17.837Z,100211.73
2019-02-26T20:47:43.828Z,100215.73
2019-02-26T20:50:12.858Z,100205.06
2019-02-26T20:52:41.623Z,100202.55
2019-02-26T20:55:12.207Z,100198.21
2019-02-26T20:57:40.895Z,100186.42
2019-02-26T21:00:12.514Z,100189.41
2019-02-26T21:02:41.442Z,100194.58
2019-02-26T21:05:10.354Z,100190.30
2019-02-26T21:07:39.185Z,100194.03
2019-02-26T21:10:08.507Z,100184.03
2019-02-26T21:12:37.199Z,100186.59
2019-02-26T21:15:08.259Z,100185.41
2019-02-26T21:17:37.185Z,100184.83
2019-02-26T21:20:07.762Z,100185.23
2019-02-26T21:22:37.299Z,100181.09
2019-02-26T21:25:08.513Z,100175.82
2019-02-26T21:27:36.821Z,100172.03
2019-02-26T21:30:06.030Z,100171.82
2019-02-26T21:32:34.982Z,100173.39
2019-02-26T21:35:04.046Z,100179.48
2019-02-26T21:37:33.363Z,100178.77
2019-02-26T21:40:02.234Z,100172.92
2019-02-26T21:42:30.910Z,100173.50
2019-02-26T21:44:59.589Z,100178.00
2019-02-26T21:47:28.590Z,100177.55
2019-02-26T21:49:57.280Z,100168.08
2019-02-26T21:52:25.961Z,100167.96
2019-02-26T21:54:57.737Z,100167.26
2019-02-26T21:57:25.050Z,100171.98
2019-02-26T21:59:54.811Z,100171.51
2019-02-26T22:02:23.668Z,100171.87
2019-02-26T22:04:52.847Z,100165.14
2019-02-26T22:07:21.801Z,100163.68
2019-02-26T22:09:52.107Z,100168.06
2019-02-26T22:12:21.853Z,100163.84
2019-02-26T22:14:51.400Z,100166.55
2019-02-26T22:17:20.303Z,100162.43
2019-02-26T22:19:49.012Z,100158.58
2019-02-26T22:22:17.734Z,100156.36
2019-02-26T22:24:46.428Z,100156.38
2019-02-26T22:27:15.124Z,100158.06
2019-02-26T22:29:47.965Z,100154.92
2019-02-26T22:32:14.459Z,100158.48
2019-02-26T22:34:43.155Z,100154.89
2019-02-26T22:37:11.846Z,100155.78
2019-02-26T22:39:40.789Z,100148.23
2019-02-26T22:42:09.454Z,100146.63
2019-02-26T22:44:38.395Z,100143.39
2019-02-26T22:47:07.598Z,100141.97
2019-02-26T22:49:36.583Z,100140.44
2019-02-26T22:52:05.581Z,100143.37
2019-02-26T22:57:09.041Z,100139.95
2019-02-26T22:59:38.583Z,100126.95
2019-02-26T23:02:09.268Z,100126.01
2019-02-26T23:04:38.028Z,100119.52
2019-02-26T23:07:06.768Z,100119.11
2019-02-26T23:09:35.532Z,100125.85
2019-02-26T23:12:05.048Z,100123.60
2019-02-26T23:14:35.910Z,100122.93
2019-02-26T23:17:05.763Z,100117.86
2019-02-26T23:19:36.681Z,100124.64
2019-02-26T23:22:04.995Z,100114.01
2019-02-26T23:24:34.082Z,100118.75
2019-02-26T23:27:03.520Z,100115.88
2019-02-26T23:29:32.520Z,100115.14
2019-02-26T23:32:01.194Z,100104.89
2019-02-26T23:34:30.113Z,100102.22
2019-02-26T23:37:00.968Z,100096.98
2019-02-26T23:39:29.617Z,100092.41
2019-02-26T23:41:58.428Z,100090.57
2019-02-26T23:44:27.327Z,100097.33
2019-02-26T23:46:56.008Z,100096.85
2019-02-26T23:49:24.966Z,100098.67
2019-02-26T23:51:54.577Z,100095.59
2019-02-26T23:54:23.776Z,100101.27
2019-02-26T23:56:54.790Z,100108.37
2019-02-26T23:59:23.470Z,100108.75
